sensor_id;sensor_type;location;lat;lon;timestamp;pressure;altitude;pressure_sealevel;temperature
65272;BMP280;51868;48.812;8.198;2022-12-19T00:00:31;101388.72;;;-2.88
65272;BMP280;51868;48.812;8.198;2022-12-19T00:02:59;101388.72;;;-2.88
65272;BMP280;51868;48.812;8.198;2022-12-19T00:05:28;101392.16;;;-2.88
65272;BMP280;51868;48.812;8.198;2022-12-19T00:07:56;101385.47;;;-2.87
65272;BMP280;51868;48.812;8.198;2022-12-19T00:10:27;101380.31;;;-2.85
65272;BMP280;51868;48.812;8.198;2022-12-19T00:12:54;101375.84;;;-2.82
65272;BMP280;51868;48.812;8.198;2022-12-19T00:15:22;101372.66;;;-2.81
65272;BMP280;51868;48.812;8.198;2022-12-19T00:17:50;101372.41;;;-2.77
65272;BMP280;51868;48.812;8.198;2022-12-19T00:20:17;101385.50;;;-2.76
65272;BMP280;51868;48.812;8.198;2022-12-19T00:22:46;101368.72;;;-2.74
65272;BMP280;51868;48.812;8.198;2022-12-19T00:25:16;101383.03;;;-2.74
65272;BMP280;51868;48.812;8.198;2022-12-19T00:27:44;101384.75;;;-2.71
65272;BMP280;51868;48.812;8.198;2022-12-19T00:30:12;101382.03;;;-2.71
65272;BMP280;51868;48.812;8.198;2022-12-19T00:32:40;101382.03;;;-2.71
65272;BMP280;51868;48.812;8.198;2022-12-19T00:35:08;101377.34;;;-2.70
65272;BMP280;51868;48.812;8.198;2022-12-19T00:37:35;101378.09;;;-2.69
65272;BMP280;51868;48.812;8.198;2022-12-19T00:40:10;101370.19;;;-2.67
65272;BMP280;51868;48.812;8.198;2022-12-19T00:42:38;101372.41;;;-2.66
65272;BMP280;51868;48.812;8.198;2022-12-19T00:45:06;101384.78;;;-2.65
65272;BMP280;51868;48.812;8.198;2022-12-19T00:47:36;101376.88;;;-2.63
65272;BMP280;51868;48.812;8.198;2022-12-19T00:50:08;101378.34;;;-2.62
65272;BMP280;51868;48.812;8.198;2022-12-19T00:52:36;101371.44;;;-2.63
65272;BMP280;51868;48.812;8.198;2022-12-19T00:55:04;101370.44;;;-2.60
65272;BMP280;51868;48.812;8.198;2022-12-19T00:57:43;101374.88;;;-2.57
65272;BMP280;51868;48.812;8.198;2022-12-19T01:00:12;101371.69;;;-2.55
65272;BMP280;51868;48.812;8.198;2022-12-19T01:02:39;101368.97;;;-2.55
65272;BMP280;51868;48.812;8.198;2022-12-19T01:05:08;101371.19;;;-2.54
65272;BMP280;51868;48.812;8.198;2022-12-19T01:07:36;101368.72;;;-2.52
65272;BMP280;51868;48.812;8.198;2022-12-19T01:10:05;101370.19;;;-2.51
65272;BMP280;51868;48.812;8.198;2022-12-19T01:12:33;101354.38;;;-2.52
65272;BMP280;51868;48.812;8.198;2022-12-19T01:15:17;101355.13;;;-2.52
65272;BMP280;51868;48.812;8.198;2022-12-19T01:17:46;101358.09;;;-2.49
65272;BMP280;51868;48.812;8.198;2022-12-19T01:20:15;101351.66;;;-2.46
65272;BMP280;51868;48.812;8.198;2022-12-19T01:22:55;101347.94;;;-2.43
65272;BMP280;51868;48.812;8.198;2022-12-19T01:25:26;101339.78;;;-2.43
65272;BMP280;51868;48.812;8.198;2022-12-19T01:27:54;101336.34;;;-2.44
65272;BMP280;51868;48.812;8.198;2022-12-19T01:30:23;101321.50;;;-2.43
65272;BMP280;51868;48.812;8.198;2022-12-19T01:32:53;101323.72;;;-2.41
65272;BMP280;51868;48.812;8.198;2022-12-19T01:35:20;101315.81;;;-2.39
65272;BMP280;51868;48.812;8.198;2022-12-19T01:37:49;101315.31;;;-2.38
65272;BMP280;51868;48.812;8.198;2022-12-19T01:40:34;101310.88;;;-2.35
65272;BMP280;51868;48.812;8.198;2022-12-19T01:43:02;101314.31;;;-2.35
65272;BMP280;51868;48.812;8.198;2022-12-19T01:45:32;101310.34;;;-2.34
65272;BMP280;51868;48.812;8.198;2022-12-19T01:48:15;101315.56;;;-2.30
65272;BMP280;51868;48.812;8.198;2022-12-19T01:50:50;101307.91;;;-2.26
65272;BMP280;51868;48.812;8.198;2022-12-19T01:53:30;101304.19;;;-2.23
65272;BMP280;51868;48.812;8.198;2022-12-19T01:56:02;101304.19;;;-2.23
65272;BMP280;51868;48.812;8.198;2022-12-19T01:58:37;101296.25;;;-2.21
65272;BMP280;51868;48.812;8.198;2022-12-19T02:01:07;101306.13;;;-2.18
65272;BMP280;51868;48.812;8.198;2022-12-19T02:03:35;101304.91;;;-2.17
65272;BMP280;51868;48.812;8.198;2022-12-19T02:06:05;101308.84;;;-2.18
65272;BMP280;51868;48.812;8.198;2022-12-19T02:08:34;101300.69;;;-2.18
65272;BMP280;51868;48.812;8.198;2022-12-19T02:11:02;101314.53;;;-2.16
65272;BMP280;51868;48.812;8.198;2022-12-19T02:13:30;101322.94;;;-2.14
65272;BMP280;51868;48.812;8.198;2022-12-19T02:16:03;101325.91;;;-2.12
65272;BMP280;51868;48.812;8.198;2022-12-19T02:18:40;101315.75;;;-2.11
65272;BMP280;51868;48.812;8.198;2022-12-19T02:21:25;101296.47;;;-2.13
65272;BMP280;51868;48.812;8.198;2022-12-19T02:24:24;101293.25;;;-2.12
65272;BMP280;51868;48.812;8.198;2022-12-19T02:27:04;101296.97;;;-2.09
65272;BMP280;51868;48.812;8.198;2022-12-19T02:29:58;101299.91;;;-2.07
65272;BMP280;51868;48.812;8.198;2022-12-19T02:32:32;101303.38;;;-2.06
65272;BMP280;51868;48.812;8.198;2022-12-19T02:35:08;101304.63;;;-2.07
65272;BMP280;51868;48.812;8.198;2022-12-19T02:37:44;101311.78;;;-2.04
65272;BMP280;51868;48.812;8.198;2022-12-19T02:40:18;101302.38;;;-2.03
65272;BMP280;51868;48.812;8.198;2022-12-19T02:42:49;101315.47;;;-2.02
65272;BMP280;51868;48.812;8.198;2022-12-19T02:45:19;101323.63;;;-2.02
65272;BMP280;51868;48.812;8.198;2022-12-19T02:47:56;101321.66;;;-2.01
65272;BMP280;51868;48.812;8.198;2022-12-19T02:50:35;101320.41;;;-2.00
65272;BMP280;51868;48.812;8.198;2022-12-19T02:53:03;101317.94;;;-1.98
65272;BMP280;51868;48.812;8.198;2022-12-19T02:55:38;101319.91;;;-1.99
65272;BMP280;51868;48.812;8.198;2022-12-19T02:58:31;101322.88;;;-1.97
65272;BMP280;51868;48.812;8.198;2022-12-19T03:01:05;101322.88;;;-1.97
65272;BMP280;51868;48.812;8.198;2022-12-19T03:03:43;101325.59;;;-1.97
65272;BMP280;51868;48.812;8.198;2022-12-19T03:06:21;101326.34;;;-1.96
65272;BMP280;51868;48.812;8.198;2022-12-19T03:08:55;101319.16;;;-1.94
65272;BMP280;51868;48.812;8.198;2022-12-19T03:11:30;101315.91;;;-1.92
65272;BMP280;51868;48.812;8.198;2022-12-19T03:14:01;101323.59;;;-1.91
65272;BMP280;51868;48.812;8.198;2022-12-19T03:16:33;101320.38;;;-1.89
65272;BMP280;51868;48.812;8.198;2022-12-19T03:19:02;101315.22;;;-1.87
65272;BMP280;51868;48.812;8.198;2022-12-19T03:21:34;101310.50;;;-1.86
65272;BMP280;51868;48.812;8.198;2022-12-19T03:24:03;101315.22;;;-1.87
65272;BMP280;51868;48.812;8.198;2022-12-19T03:26:34;101314.69;;;-1.85
65272;BMP280;51868;48.812;8.198;2022-12-19T03:29:08;101304.03;;;-1.83
65272;BMP280;51868;48.812;8.198;2022-12-19T03:31:38;101298.09;;;-1.82
65272;BMP280;51868;48.812;8.198;2022-12-19T03:34:23;101290.19;;;-1.80
65272;BMP280;51868;48.812;8.198;2022-12-19T03:36:55;101287.69;;;-1.78
65272;BMP280;51868;48.812;8.198;2022-12-19T03:39:25;101285.19;;;-1.76
65272;BMP280;51868;48.812;8.198;2022-12-19T03:41:56;101283.72;;;-1.77
65272;BMP280;51868;48.812;8.198;2022-12-19T03:44:42;101279.53;;;-1.78
65272;BMP280;51868;48.812;8.198;2022-12-19T03:47:16;101284.75;;;-1.80
65272;BMP280;51868;48.812;8.198;2022-12-19T03:49:46;101280.03;;;-1.79
65272;BMP280;51868;48.812;8.198;2022-12-19T03:52:23;101276.81;;;-1.78
65272;BMP280;51868;48.812;8.198;2022-12-19T03:54:55;101268.66;;;-1.78
65272;BMP280;51868;48.812;8.198;2022-12-19T03:57:29;101281.50;;;-1.78
65272;BMP280;51868;48.812;8.198;2022-12-19T04:00:03;101275.56;;;-1.77
65272;BMP280;51868;48.812;8.198;2022-12-19T04:02:33;101291.16;;;-1.77
65272;BMP280;51868;48.812;8.198;2022-12-19T04:05:06;101293.88;;;-1.77
65272;BMP280;51868;48.812;8.198;2022-12-19T04:07:35;101299.09;;;-1.79
65272;BMP280;51868;48.812;8.198;2022-12-19T04:10:05;101287.69;;;-1.78
65272;BMP280;51868;48.812;8.198;2022-12-19T04:12:37;101284.97;;;-1.78
65272;BMP280;51868;48.812;8.198;2022-12-19T04:15:08;101289.41;;;-1.75
65272;BMP280;51868;48.812;8.198;2022-12-19T04:17:39;101296.31;;;-1.74
65272;BMP280;51868;48.812;8.198;2022-12-19T04:20:12;101302.00;;;-1.72
65272;BMP280;51868;48.812;8.198;2022-12-19T04:22:43;101304.97;;;-1.70
65272;BMP280;51868;48.812;8.198;2022-12-19T04:25:14;101299.53;;;-1.70
65272;BMP280;51868;48.812;8.198;2022-12-19T04:27:47;101296.81;;;-1.70
65272;BMP280;51868;48.812;8.198;2022-12-19T04:30:17;101299.53;;;-1.70
65272;BMP280;51868;48.812;8.198;2022-12-19T04:32:46;101304.22;;;-1.70
65272;BMP280;51868;48.812;8.198;2022-12-19T04:35:16;101311.16;;;-1.69
65272;BMP280;51868;48.812;8.198;2022-12-19T04:37:43;101307.19;;;-1.68
65272;BMP280;51868;48.812;8.198;2022-12-19T04:40:12;101305.19;;;-1.68
65272;BMP280;51868;48.812;8.198;2022-12-19T04:42:40;101302.00;;;-1.66
65272;BMP280;51868;48.812;8.198;2022-12-19T04:45:08;101294.78;;;-1.63
65272;BMP280;51868;48.812;8.198;2022-12-19T04:47:37;101284.88;;;-1.61
65272;BMP280;51868;48.812;8.198;2022-12-19T04:50:05;101289.06;;;-1.60
65272;BMP280;51868;48.812;8.198;2022-12-19T04:52:34;101278.41;;;-1.58
65272;BMP280;51868;48.812;8.198;2022-12-19T04:55:02;101281.88;;;-1.57
65272;BMP280;51868;48.812;8.198;2022-12-19T04:57:30;101286.81;;;-1.56
65272;BMP280;51868;48.812;8.198;2022-12-19T04:59:58;101280.16;;;-1.55
65272;BMP280;51868;48.812;8.198;2022-12-19T05:02:26;101274.41;;;-1.51
65272;BMP280;51868;48.812;8.198;2022-12-19T05:04:54;101268.97;;;-1.51
65272;BMP280;51868;48.812;8.198;2022-12-19T05:07:22;101269.94;;;-1.49
65272;BMP280;51868;48.812;8.198;2022-12-19T05:09:51;101258.31;;;-1.49
65272;BMP280;51868;48.812;8.198;2022-12-19T05:12:19;101255.84;;;-1.47
65272;BMP280;51868;48.812;8.198;2022-12-19T05:14:46;101262.00;;;-1.47
65272;BMP280;51868;48.812;8.198;2022-12-19T05:17:14;101264.00;;;-1.47
65272;BMP280;51868;48.812;8.198;2022-12-19T05:19:42;101253.13;;;-1.47
65272;BMP280;51868;48.812;8.198;2022-12-19T05:22:09;101250.88;;;-1.49
65272;BMP280;51868;48.812;8.198;2022-12-19T05:24:37;101238.00;;;-1.48
65272;BMP280;51868;48.812;8.198;2022-12-19T05:27:07;101242.22;;;-1.47
65272;BMP280;51868;48.812;8.198;2022-12-19T05:29:35;101236.03;;;-1.48
65272;BMP280;51868;48.812;8.198;2022-12-19T05:32:03;101234.28;;;-1.45
65272;BMP280;51868;48.812;8.198;2022-12-19T05:34:31;101244.16;;;-1.42
65272;BMP280;51868;48.812;8.198;2022-12-19T05:36:59;101236.97;;;-1.39
65272;BMP280;51868;48.812;8.198;2022-12-19T05:39:28;101222.84;;;-1.38
65272;BMP280;51868;48.812;8.198;2022-12-19T05:41:56;101227.28;;;-1.35
65272;BMP280;51868;48.812;8.198;2022-12-19T05:44:26;101227.28;;;-1.35
65272;BMP280;51868;48.812;8.198;2022-12-19T05:46:54;101232.97;;;-1.33
65272;BMP280;51868;48.812;8.198;2022-12-19T05:49:22;101241.16;;;-1.33
65272;BMP280;51868;48.812;8.198;2022-12-19T05:51:50;101237.94;;;-1.31
65272;BMP280;51868;48.812;8.198;2022-12-19T05:54:18;101246.81;;;-1.31
65272;BMP280;51868;48.812;8.198;2022-12-19T05:56:49;101237.41;;;-1.30
65272;BMP280;51868;48.812;8.198;2022-12-19T05:59:17;101239.63;;;-1.28
65272;BMP280;51868;48.812;8.198;2022-12-19T06:01:47;101237.13;;;-1.26
65272;BMP280;51868;48.812;8.198;2022-12-19T06:04:15;101244.81;;;-1.24
65272;BMP280;51868;48.812;8.198;2022-12-19T06:06:43;101236.63;;;-1.24
65272;BMP280;51868;48.812;8.198;2022-12-19T06:09:11;101239.59;;;-1.22
65272;BMP280;51868;48.812;8.198;2022-12-19T06:11:38;101233.63;;;-1.21
65272;BMP280;51868;48.812;8.198;2022-12-19T06:14:06;101231.13;;;-1.19
65272;BMP280;51868;48.812;8.198;2022-12-19T06:16:34;101226.41;;;-1.18
65272;BMP280;51868;48.812;8.198;2022-12-19T06:19:03;101237.03;;;-1.15
65272;BMP280;51868;48.812;8.198;2022-12-19T06:21:31;101243.97;;;-1.14
65272;BMP280;51868;48.812;8.198;2022-12-19T06:23:59;101240.72;;;-1.12
65272;BMP280;51868;48.812;8.198;2022-12-19T06:26:27;101245.69;;;-1.11
65272;BMP280;51868;48.812;8.198;2022-12-19T06:28:56;101249.13;;;-1.10
65272;BMP280;51868;48.812;8.198;2022-12-19T06:31:24;101243.94;;;-1.08
65272;BMP280;51868;48.812;8.198;2022-12-19T06:33:54;101246.88;;;-1.06
65272;BMP280;51868;48.812;8.198;2022-12-19T06:36:25;101255.78;;;-1.06
65272;BMP280;51868;48.812;8.198;2022-12-19T06:38:54;101244.34;;;-1.04
65272;BMP280;51868;48.812;8.198;2022-12-19T06:41:23;101237.69;;;-1.03
65272;BMP280;51868;48.812;8.198;2022-12-19T06:44:09;101233.19;;;-1.00
65272;BMP280;51868;48.812;8.198;2022-12-19T06:46:38;101242.09;;;-1.00
65272;BMP280;51868;48.812;8.198;2022-12-19T06:49:08;101236.66;;;-1.00
65272;BMP280;51868;48.812;8.198;2022-12-19T06:51:37;101242.09;;;-1.00
65272;BMP280;51868;48.812;8.198;2022-12-19T06:54:05;101235.91;;;-1.00
65272;BMP280;51868;48.812;8.198;2022-12-19T06:56:35;101235.91;;;-1.00
65272;BMP280;51868;48.812;8.198;2022-12-19T06:59:04;101228.47;;;-1.00
65272;BMP280;51868;48.812;8.198;2022-12-19T07:01:43;101221.03;;;-0.99
65272;BMP280;51868;48.812;8.198;2022-12-19T07:04:17;101219.56;;;-1.00
65272;BMP280;51868;48.812;8.198;2022-12-19T07:06:48;101224.53;;;-0.99
65272;BMP280;51868;48.812;8.198;2022-12-19T07:09:16;101223.25;;;-0.98
65272;BMP280;51868;48.812;8.198;2022-12-19T07:11:44;101216.03;;;-0.95
65272;BMP280;51868;48.812;8.198;2022-12-19T07:14:12;101224.97;;;-0.95
65272;BMP280;51868;48.812;8.198;2022-12-19T07:16:40;101236.31;;;-0.91
65272;BMP280;51868;48.812;8.198;2022-12-19T07:19:11;101248.94;;;-0.88
65272;BMP280;51868;48.812;8.198;2022-12-19T07:21:40;101241.50;;;-0.87
65272;BMP280;51868;48.812;8.198;2022-12-19T07:24:09;101244.97;;;-0.87
65272;BMP280;51868;48.812;8.198;2022-12-19T07:26:38;101245.69;;;-0.86
65272;BMP280;51868;48.812;8.198;2022-12-19T07:29:07;101255.84;;;-0.87
65272;BMP280;51868;48.812;8.198;2022-12-19T07:31:35;101253.38;;;-0.85
65272;BMP280;51868;48.812;8.198;2022-12-19T07:34:03;101249.38;;;-0.84
65272;BMP280;51868;48.812;8.198;2022-12-19T07:36:31;101246.88;;;-0.81
65272;BMP280;51868;48.812;8.198;2022-12-19T07:38:59;101258.25;;;-0.77
65272;BMP280;51868;48.812;8.198;2022-12-19T07:41:28;101258.47;;;-0.75
65272;BMP280;51868;48.812;8.198;2022-12-19T07:43:56;101254.72;;;-0.72
65272;BMP280;51868;48.812;8.198;2022-12-19T07:46:28;101261.44;;;-0.73
65272;BMP280;51868;48.812;8.198;2022-12-19T07:48:56;101261.91;;;-0.69
65272;BMP280;51868;48.812;8.198;2022-12-19T07:51:25;101252.47;;;-0.68
65272;BMP280;51868;48.812;8.198;2022-12-19T07:53:52;101248.19;;;-0.64
65272;BMP280;51868;48.812;8.198;2022-12-19T07:56:20;101249.16;;;-0.61
65272;BMP280;51868;48.812;8.198;2022-12-19T07:58:50;101246.66;;;-0.59
65272;BMP280;51868;48.812;8.198;2022-12-19T08:01:18;101251.09;;;-0.56
65272;BMP280;51868;48.812;8.198;2022-12-19T08:03:46;101249.84;;;-0.55
65272;BMP280;51868;48.812;8.198;2022-12-19T08:06:16;101258.25;;;-0.53
65272;BMP280;51868;48.812;8.198;2022-12-19T08:08:44;101253.03;;;-0.51
65272;BMP280;51868;48.812;8.198;2022-12-19T08:11:14;101251.75;;;-0.50
65272;BMP280;51868;48.812;8.198;2022-12-19T08:13:43;101250.50;;;-0.49
65272;BMP280;51868;48.812;8.198;2022-12-19T08:16:14;101244.03;;;-0.46
65272;BMP280;51868;48.812;8.198;2022-12-19T08:18:45;101243.72;;;-0.42
65272;BMP280;51868;48.812;8.198;2022-12-19T08:21:16;101241.47;;;-0.38
65272;BMP280;51868;48.812;8.198;2022-12-19T08:23:44;101243.69;;;-0.36
65272;BMP280;51868;48.812;8.198;2022-12-19T08:26:14;101241.69;;;-0.36
65272;BMP280;51868;48.812;8.198;2022-12-19T08:28:42;101239.19;;;-0.34
65272;BMP280;51868;48.812;8.198;2022-12-19T08:31:12;101236.72;;;-0.32
65272;BMP280;51868;48.812;8.198;2022-12-19T08:33:44;101233.69;;;-0.28
65272;BMP280;51868;48.812;8.198;2022-12-19T08:36:14;101229.72;;;-0.27
65272;BMP280;51868;48.812;8.198;2022-12-19T08:38:44;101230.44;;;-0.27
65272;BMP280;51868;48.812;8.198;2022-12-19T08:41:15;101225.44;;;-0.23
65272;BMP280;51868;48.812;8.198;2022-12-19T08:43:47;101221.69;;;-0.19
65272;BMP280;51868;48.812;8.198;2022-12-19T08:46:16;101227.88;;;-0.19
65272;BMP280;51868;48.812;8.198;2022-12-19T08:48:56;101215.94;;;-0.16
65272;BMP280;51868;48.812;8.198;2022-12-19T08:51:27;101210.91;;;-0.12
65272;BMP280;51868;48.812;8.198;2022-12-19T08:53:55;101214.09;;;-0.08
65272;BMP280;51868;48.812;8.198;2022-12-19T08:56:23;101210.34;;;-0.05
65272;BMP280;51868;48.812;8.198;2022-12-19T08:58:52;101212.03;;;-0.02
65272;BMP280;51868;48.812;8.198;2022-12-19T09:01:21;101212.47;;;0.03
65272;BMP280;51868;48.812;8.198;2022-12-19T09:03:56;101216.88;;;0.06
65272;BMP280;51868;48.812;8.198;2022-12-19T09:06:44;101215.34;;;0.10
65272;BMP280;51868;48.812;8.198;2022-12-19T09:09:12;101224.47;;;0.13
65272;BMP280;51868;48.812;8.198;2022-12-19T09:11:40;101213.03;;;0.14
65272;BMP280;51868;48.812;8.198;2022-12-19T09:14:14;101218.72;;;0.16
65272;BMP280;51868;48.812;8.198;2022-12-19T09:16:47;101210.94;;;0.20
65272;BMP280;51868;48.812;8.198;2022-12-19T09:19:28;101205.19;;;0.24
65272;BMP280;51868;48.812;8.198;2022-12-19T09:21:55;101215.31;;;0.29
65272;BMP280;51868;48.812;8.198;2022-12-19T09:24:23;101197.88;;;0.32
65272;BMP280;51868;48.812;8.198;2022-12-19T09:26:52;101183.91;;;0.36
65272;BMP280;51868;48.812;8.198;2022-12-19T09:29:21;101186.53;;;0.41
65272;BMP280;51868;48.812;8.198;2022-12-19T09:31:49;101186.97;;;0.46
65272;BMP280;51868;48.812;8.198;2022-12-19T09:34:23;101197.81;;;0.51
65272;BMP280;51868;48.812;8.198;2022-12-19T09:37:02;101201.19;;;0.57
65272;BMP280;51868;48.812;8.198;2022-12-19T09:39:30;101182.19;;;0.65
65272;BMP280;51868;48.812;8.198;2022-12-19T09:42:27;101178.84;;;0.72
65272;BMP280;51868;48.812;8.198;2022-12-19T09:45:24;101190.41;;;0.78
65272;BMP280;51868;48.812;8.198;2022-12-19T09:47:59;101187.38;;;0.82
65272;BMP280;51868;48.812;8.198;2022-12-19T09:50:43;101182.63;;;0.82
65272;BMP280;51868;48.812;8.198;2022-12-19T09:53:18;101187.06;;;0.86
65272;BMP280;51868;48.812;8.198;2022-12-19T09:55:48;101183.78;;;0.87
65272;BMP280;51868;48.812;8.198;2022-12-19T09:58:26;101182.00;;;0.90
65272;BMP280;51868;48.812;8.198;2022-12-19T10:00:58;101174.22;;;0.94
65272;BMP280;51868;48.812;8.198;2022-12-19T10:03:31;101174.44;;;0.96
65272;BMP280;51868;48.812;8.198;2022-12-19T10:06:13;101156.78;;;0.97
65272;BMP280;51868;48.812;8.198;2022-12-19T10:09:02;101170.13;;;1.00
65272;BMP280;51868;48.812;8.198;2022-12-19T10:12:03;101168.88;;;1.01
65272;BMP280;51868;48.812;8.198;2022-12-19T10:15:00;101168.34;;;1.03
65272;BMP280;51868;48.812;8.198;2022-12-19T10:17:37;101168.56;;;1.05
65272;BMP280;51868;48.812;8.198;2022-12-19T10:20:18;101169.28;;;1.05
65272;BMP280;51868;48.812;8.198;2022-12-19T10:22:58;101163.31;;;1.07
65272;BMP280;51868;48.812;8.198;2022-12-19T10:25:41;101155.31;;;1.09
65272;BMP280;51868;48.812;8.198;2022-12-19T10:28:25;101147.34;;;1.11
65272;BMP280;51868;48.812;8.198;2022-12-19T10:31:07;101135.13;;;1.12
65272;BMP280;51868;48.812;8.198;2022-12-19T10:33:51;101117.66;;;1.15
65272;BMP280;51868;48.812;8.198;2022-12-19T10:36:24;101119.34;;;1.18
65272;BMP280;51868;48.812;8.198;2022-12-19T10:39:22;101129.22;;;1.21
65272;BMP280;51868;48.812;8.198;2022-12-19T10:41:55;101127.44;;;1.24
65272;BMP280;51868;48.812;8.198;2022-12-19T10:44:25;101139.09;;;1.24
65272;BMP280;51868;48.812;8.198;2022-12-19T10:46:57;101141.31;;;1.26
65272;BMP280;51868;48.812;8.198;2022-12-19T10:49:30;101141.31;;;1.26
65272;BMP280;51868;48.812;8.198;2022-12-19T10:51:59;101136.06;;;1.28
65272;BMP280;51868;48.812;8.198;2022-12-19T10:54:40;101135.53;;;1.30
65272;BMP280;51868;48.812;8.198;2022-12-19T10:57:23;101128.06;;;1.30
65272;BMP280;51868;48.812;8.198;2022-12-19T10:59:54;101117.13;;;1.30
65272;BMP280;51868;48.812;8.198;2022-12-19T11:02:32;101116.56;;;1.32
65272;BMP280;51868;48.812;8.198;2022-12-19T11:05:01;101104.38;;;1.33
65272;BMP280;51868;48.812;8.198;2022-12-19T11:07:32;101101.88;;;1.35
65272;BMP280;51868;48.812;8.198;2022-12-19T11:10:32;101100.75;;;1.38
65272;BMP280;51868;48.812;8.198;2022-12-19T11:13:27;101102.44;;;1.41
65272;BMP280;51868;48.812;8.198;2022-12-19T11:16:21;101099.91;;;1.43
65272;BMP280;51868;48.812;8.198;2022-12-19T11:19:20;101096.84;;;1.46
65272;BMP280;51868;48.812;8.198;2022-12-19T11:22:15;101095.78;;;1.49
65272;BMP280;51868;48.812;8.198;2022-12-19T11:25:14;101086.00;;;1.54
65272;BMP280;51868;48.812;8.198;2022-12-19T11:28:03;101100.81;;;1.59
65272;BMP280;51868;48.812;8.198;2022-12-19T11:31:02;101093.75;;;1.63
65272;BMP280;51868;48.812;8.198;2022-12-19T11:33:53;101093.44;;;1.67
65272;BMP280;51868;48.812;8.198;2022-12-19T11:36:29;101099.84;;;1.69
65272;BMP280;51868;48.812;8.198;2022-12-19T11:39:02;101086.34;;;1.72
65272;BMP280;51868;48.812;8.198;2022-12-19T11:41:40;101066.13;;;1.75
65272;BMP280;51868;48.812;8.198;2022-12-19T11:44:13;101070.53;;;1.78
65272;BMP280;51868;48.812;8.198;2022-12-19T11:46:48;101074.94;;;1.81
65272;BMP280;51868;48.812;8.198;2022-12-19T11:49:25;101068.41;;;1.84
65272;BMP280;51868;48.812;8.198;2022-12-19T11:51:58;101062.59;;;1.87
65272;BMP280;51868;48.812;8.198;2022-12-19T11:54:31;101068.81;;;1.88
65272;BMP280;51868;48.812;8.198;2022-12-19T11:57:00;101072.81;;;1.87
65272;BMP280;51868;48.812;8.198;2022-12-19T11:59:30;101052.91;;;1.86
65272;BMP280;51868;48.812;8.198;2022-12-19T12:02:17;101049.66;;;1.88
65272;BMP280;51868;48.812;8.198;2022-12-19T12:05:19;101045.59;;;1.89
65272;BMP280;51868;48.812;8.198;2022-12-19T12:07:54;101044.56;;;1.92
65272;BMP280;51868;48.812;8.198;2022-12-19T12:10:50;101036.53;;;1.94
65272;BMP280;51868;48.812;8.198;2022-12-19T12:13:45;101027.06;;;1.95
65272;BMP280;51868;48.812;8.198;2022-12-19T12:16:40;101032.00;;;1.97
65272;BMP280;51868;48.812;8.198;2022-12-19T12:19:44;101025.97;;;1.98
65272;BMP280;51868;48.812;8.198;2022-12-19T12:22:44;101022.69;;;2.00
65272;BMP280;51868;48.812;8.198;2022-12-19T12:25:46;101025.66;;;2.02
65272;BMP280;51868;48.812;8.198;2022-12-19T12:28:48;101018.16;;;2.02
65272;BMP280;51868;48.812;8.198;2022-12-19T12:31:45;101019.28;;;2.07
65272;BMP280;51868;48.812;8.198;2022-12-19T12:34:49;101022.06;;;2.15
65272;BMP280;51868;48.812;8.198;2022-12-19T12:37:47;101028.34;;;2.23
65272;BMP280;51868;48.812;8.198;2022-12-19T12:40:54;101020.47;;;2.55
65272;BMP280;51868;48.812;8.198;2022-12-19T12:43:39;101027.09;;;3.19
65272;BMP280;51868;48.812;8.198;2022-12-19T12:46:14;101021.78;;;3.60
65272;BMP280;51868;48.812;8.198;2022-12-19T12:48:47;101023.91;;;4.30
65272;BMP280;51868;48.812;8.198;2022-12-19T12:51:19;101016.81;;;4.04
65272;BMP280;51868;48.812;8.198;2022-12-19T12:53:48;101031.84;;;3.80
65272;BMP280;51868;48.812;8.198;2022-12-19T12:56:20;101024.38;;;3.66
65272;BMP280;51868;48.812;8.198;2022-12-19T12:59:21;101029.69;;;3.56
65272;BMP280;51868;48.812;8.198;2022-12-19T13:01:52;101023.25;;;3.38
65272;BMP280;51868;48.812;8.198;2022-12-19T13:04:27;101024.34;;;3.19
65272;BMP280;51868;48.812;8.198;2022-12-19T13:07:28;101035.06;;;3.02
65272;BMP280;51868;48.812;8.198;2022-12-19T13:10:15;101031.22;;;2.90
65272;BMP280;51868;48.812;8.198;2022-12-19T13:12:53;101022.78;;;2.80
65272;BMP280;51868;48.812;8.198;2022-12-19T13:15:35;101023.28;;;2.71
65272;BMP280;51868;48.812;8.198;2022-12-19T13:18:14;101022.00;;;2.64
65272;BMP280;51868;48.812;8.198;2022-12-19T13:20:56;101033.09;;;2.59
65272;BMP280;51868;48.812;8.198;2022-12-19T13:23:47;101033.44;;;2.55
65272;BMP280;51868;48.812;8.198;2022-12-19T13:29:30;101030.53;;;2.61
65272;BMP280;51868;48.812;8.198;2022-12-19T13:32:22;101035.09;;;2.58
65272;BMP280;51868;48.812;8.198;2022-12-19T13:34:54;101038.19;;;2.54
65272;BMP280;51868;48.812;8.198;2022-12-19T13:37:43;101037.31;;;2.60
65272;BMP280;51868;48.812;8.198;2022-12-19T13:40:33;101047.03;;;2.68
65272;BMP280;51868;48.812;8.198;2022-12-19T13:43:10;101039.22;;;2.80
65272;BMP280;51868;48.812;8.198;2022-12-19T13:46:00;101036.69;;;2.90
65272;BMP280;51868;48.812;8.198;2022-12-19T13:48:31;101030.88;;;2.93
65272;BMP280;51868;48.812;8.198;2022-12-19T13:51:04;101024.63;;;2.93
65272;BMP280;51868;48.812;8.198;2022-12-19T13:53:33;101024.44;;;2.91
65272;BMP280;51868;48.812;8.198;2022-12-19T13:56:03;101039.44;;;2.90
65272;BMP280;51868;48.812;8.198;2022-12-19T13:58:35;101042.53;;;2.86
65272;BMP280;51868;48.812;8.198;2022-12-19T14:01:12;101038.84;;;2.84
65272;BMP280;51868;48.812;8.198;2022-12-19T14:03:47;101028.25;;;2.80
65272;BMP280;51868;48.812;8.198;2022-12-19T14:06:20;101023.84;;;2.77
65272;BMP280;51868;48.812;8.198;2022-12-19T14:08:49;101018.91;;;2.75
65272;BMP280;51868;48.812;8.198;2022-12-19T14:11:40;101015.44;;;2.75
65272;BMP280;51868;48.812;8.198;2022-12-19T14:14:29;101020.94;;;2.75
65272;BMP280;51868;48.812;8.198;2022-12-19T14:17:34;101016.50;;;2.72
65272;BMP280;51868;48.812;8.198;2022-12-19T14:20:11;101024.53;;;2.70
65272;BMP280;51868;48.812;8.198;2022-12-19T14:23:05;101030.38;;;2.66
65272;BMP280;51868;48.812;8.198;2022-12-19T14:25:35;101030.00;;;2.62
65272;BMP280;51868;48.812;8.198;2022-12-19T14:28:31;101024.13;;;2.58
65272;BMP280;51868;48.812;8.198;2022-12-19T14:31:07;101020.47;;;2.55
65272;BMP280;51868;48.812;8.198;2022-12-19T14:33:41;101005.13;;;2.52
65272;BMP280;51868;48.812;8.198;2022-12-19T14:36:30;101007.66;;;2.50
65272;BMP280;51868;48.812;8.198;2022-12-19T14:39:00;101014.97;;;2.48
65272;BMP280;51868;48.812;8.198;2022-12-19T14:41:52;101007.44;;;2.41
65272;BMP280;51868;48.812;8.198;2022-12-19T14:44:47;101012.84;;;2.33
65272;BMP280;51868;48.812;8.198;2022-12-19T14:47:37;101001.88;;;2.25